createdAt,value
2017-08-12T00:01:43.328Z,95.00
2017-08-12T00:04:11.486Z,94.90
2017-08-12T00:06:39.662Z,94.90
2017-08-12T00:09:07.841Z,94.80
2017-08-12T00:11:36.009Z,94.80
2017-08-12T00:14:04.122Z,94.50
2017-08-12T00:16:32.219Z,94.40
2017-08-12T00:19:00.327Z,94.30
2017-08-12T00:21:28.438Z,94.50
2017-08-12T00:23:56.534Z,94.40
2017-08-12T00:26:24.662Z,94.70
2017-08-12T00:28:53.542Z,95.00
2017-08-12T00:31:21.634Z,94.70
2017-08-12T00:33:50.515Z,95.00
2017-08-12T00:36:19.374Z,95.00
2017-08-12T00:38:47.459Z,94.30
2017-08-12T00:41:15.583Z,94.60
2017-08-12T00:43:43.686Z,94.20
2017-08-12T00:46:11.794Z,94.50
2017-08-12T00:48:40.672Z,94.10
2017-08-12T00:51:08.796Z,94.30
2017-08-12T00:53:37.314Z,94.00
2017-08-12T00:56:05.796Z,94.10
2017-08-12T00:58:33.918Z,94.00
2017-08-12T01:01:02.016Z,94.00
2017-08-12T01:03:30.123Z,94.00
2017-08-12T01:05:58.231Z,94.10
2017-08-12T01:08:26.319Z,94.10
2017-08-12T01:10:54.442Z,94.20
2017-08-12T01:13:22.531Z,94.30
2017-08-12T01:15:50.971Z,94.50
2017-08-12T01:18:19.065Z,94.60
2017-08-12T01:20:47.127Z,94.60
2017-08-12T01:23:15.959Z,94.60
2017-08-12T01:25:44.014Z,94.80
2017-08-12T01:28:12.498Z,94.80
2017-08-12T01:30:40.630Z,94.90
2017-08-12T01:33:08.699Z,94.80
2017-08-12T01:35:36.785Z,95.10
2017-08-12T01:38:04.913Z,95.10
2017-08-12T01:40:33.769Z,95.30
2017-08-12T01:43:02.620Z,95.00
2017-08-12T01:45:30.751Z,95.20
2017-08-12T01:47:58.806Z,94.90
2017-08-12T01:50:26.920Z,95.10
2017-08-12T01:52:55.128Z,94.90
2017-08-12T01:55:23.206Z,94.90
2017-08-12T01:57:51.290Z,94.60
2017-08-12T02:00:19.398Z,94.70
2017-08-12T02:02:48.250Z,94.60
2017-08-12T02:05:16.370Z,94.10
2017-08-12T02:07:44.458Z,94.00
2017-08-12T02:10:12.545Z,93.80
2017-08-12T02:12:41.061Z,93.80
2017-08-12T02:15:09.154Z,94.10
2017-08-12T02:17:38.006Z,94.40
2017-08-12T02:20:06.121Z,94.40
2017-08-12T02:22:34.986Z,93.40
2017-08-12T02:25:03.071Z,93.40
2017-08-12T02:27:31.947Z,93.80
2017-08-12T02:30:00.062Z,93.50
2017-08-12T02:32:28.147Z,93.80
2017-08-12T02:34:56.639Z,93.40
2017-08-12T02:37:24.754Z,93.70
2017-08-12T02:39:52.839Z,93.70
2017-08-12T02:42:21.702Z,94.10
2017-08-12T02:44:49.814Z,93.90
2017-08-12T02:47:17.938Z,93.80
2017-08-12T02:49:46.017Z,93.60
2017-08-12T02:52:14.115Z,93.70
2017-08-12T02:54:42.995Z,94.30
2017-08-12T02:57:11.097Z,93.80
2017-08-12T02:59:39.190Z,94.30
2017-08-12T03:02:07.333Z,94.20
2017-08-12T03:04:35.446Z,94.10
2017-08-12T03:07:03.538Z,94.20
2017-08-12T03:09:31.681Z,94.20
2017-08-12T03:11:59.766Z,94.40
2017-08-12T03:14:27.842Z,94.20
2017-08-12T03:16:56.042Z,94.40
2017-08-12T03:19:24.225Z,94.40
2017-08-12T03:21:52.314Z,94.20
2017-08-12T03:24:20.446Z,94.50
2017-08-12T03:26:48.635Z,94.10
2017-08-12T03:29:16.810Z,94.40
2017-08-12T03:31:44.986Z,94.30
2017-08-12T03:34:13.165Z,94.30
2017-08-12T03:36:41.335Z,94.50
2017-08-12T03:39:09.422Z,94.40
2017-08-12T03:41:37.583Z,94.50
2017-08-12T03:44:05.670Z,94.50
2017-08-12T03:46:33.835Z,94.70
2017-08-12T03:49:01.938Z,94.90
2017-08-12T03:51:30.503Z,94.70
2017-08-12T03:53:58.652Z,94.60
2017-08-12T03:56:26.767Z,94.80
2017-08-12T03:58:54.866Z,94.40
2017-08-12T04:01:22.973Z,94.40
2017-08-12T04:03:51.158Z,94.40
2017-08-12T04:06:19.329Z,94.60
2017-08-12T04:08:47.440Z,94.00
2017-08-12T04:11:16.307Z,94.20
2017-08-12T04:13:45.890Z,94.40
2017-08-12T04:16:13.992Z,94.20
2017-08-12T04:18:42.866Z,94.40
2017-08-12T04:21:10.982Z,94.40
2017-08-12T04:23:39.074Z,94.30
2017-08-12T04:26:07.288Z,94.30
2017-08-12T04:28:35.386Z,94.30
2017-08-12T04:31:04.230Z,94.50
2017-08-12T04:33:32.338Z,94.40
2017-08-12T04:36:01.186Z,94.50
2017-08-12T04:38:29.786Z,94.30
2017-08-12T04:40:58.261Z,94.50
2017-08-12T04:43:26.850Z,94.30
2017-08-12T04:45:55.030Z,94.40
2017-08-12T04:48:23.137Z,94.60
2017-08-12T04:50:51.268Z,93.70
2017-08-12T04:53:19.379Z,93.40
2017-08-12T04:55:48.333Z,93.30
2017-08-12T04:58:16.518Z,92.70
2017-08-12T05:00:44.682Z,93.00
2017-08-12T05:03:12.770Z,93.00
2017-08-12T05:05:40.934Z,93.00
2017-08-12T05:08:09.518Z,92.10
2017-08-12T05:10:37.685Z,92.30
2017-08-12T05:13:05.769Z,92.60
2017-08-12T05:15:33.934Z,92.80
2017-08-12T05:18:02.110Z,93.10
2017-08-12T05:20:30.277Z,92.50
2017-08-12T05:22:58.459Z,92.50
2017-08-12T05:25:26.630Z,93.00
2017-08-12T05:27:56.257Z,93.00
2017-08-12T05:30:24.341Z,93.20
2017-08-12T05:32:53.201Z,93.00
2017-08-12T05:35:21.374Z,93.30
2017-08-12T05:37:49.567Z,93.50
2017-08-12T05:40:18.133Z,93.10
2017-08-12T05:42:46.311Z,92.90
2017-08-12T05:45:14.482Z,92.90
2017-08-12T05:47:42.601Z,93.10
2017-08-12T05:50:10.726Z,93.30
2017-08-12T05:52:39.314Z,93.20
2017-08-12T05:55:07.490Z,92.80
2017-08-12T05:57:35.666Z,93.00
2017-08-12T06:00:03.838Z,93.30
2017-08-12T06:02:32.418Z,93.20
2017-08-12T06:05:00.510Z,93.70
2017-08-12T06:07:28.621Z,93.00
2017-08-12T06:09:56.704Z,93.30
2017-08-12T06:12:24.918Z,92.90
2017-08-12T06:14:53.398Z,92.70
2017-08-12T06:17:21.985Z,93.40
2017-08-12T06:19:50.150Z,93.60
2017-08-12T06:22:18.325Z,93.70
2017-08-12T06:24:46.502Z,93.90
2017-08-12T06:27:14.589Z,93.70
2017-08-12T06:29:42.746Z,93.60
2017-08-12T06:32:10.922Z,93.40
2017-08-12T06:34:39.069Z,93.40
2017-08-12T06:37:07.274Z,93.40
2017-08-12T06:39:35.385Z,93.20
2017-08-12T06:42:03.469Z,93.40
2017-08-12T06:44:31.553Z,93.30
2017-08-12T06:46:59.686Z,92.80
2017-08-12T06:49:28.560Z,93.00
2017-08-12T06:51:56.650Z,93.00
2017-08-12T06:54:25.534Z,93.30
2017-08-12T06:56:53.686Z,93.20
2017-08-12T06:59:21.795Z,93.20
2017-08-12T07:01:50.738Z,93.50
2017-08-12T07:04:18.859Z,93.10
2017-08-12T07:06:47.706Z,93.30
2017-08-12T07:09:16.607Z,92.30
2017-08-12T07:11:44.714Z,92.40
2017-08-12T07:14:13.675Z,92.30
2017-08-12T07:16:41.842Z,92.00
2017-08-12T07:19:09.926Z,92.70
2017-08-12T07:21:38.030Z,92.40
2017-08-12T07:24:06.901Z,91.30
2017-08-12T07:26:35.773Z,91.10
2017-08-12T07:29:03.878Z,90.40
2017-08-12T07:31:32.725Z,91.10
2017-08-12T07:34:00.910Z,91.10
2017-08-12T07:36:29.087Z,89.80
2017-08-12T07:38:57.182Z,85.50
2017-08-12T07:41:26.145Z,84.90
2017-08-12T07:43:54.322Z,83.90
2017-08-12T07:46:22.497Z,77.20
2017-08-12T07:48:50.678Z,78.60
2017-08-12T07:51:18.845Z,74.80
2017-08-12T07:53:47.723Z,75.20
2017-08-12T07:56:15.810Z,73.00
2017-08-12T07:58:43.906Z,73.50
2017-08-12T08:01:12.062Z,76.60
2017-08-12T08:03:40.941Z,74.90
2017-08-12T08:06:09.118Z,77.00
2017-08-12T08:08:37.295Z,73.50
2017-08-12T08:11:05.467Z,73.80
2017-08-12T08:13:34.054Z,71.10
2017-08-12T08:16:02.229Z,71.60
2017-08-12T08:18:31.014Z,70.20
2017-08-12T08:20:59.090Z,69.50
2017-08-12T08:23:27.258Z,68.50
2017-08-12T08:25:55.378Z,69.30
2017-08-12T08:28:24.210Z,70.80
2017-08-12T08:30:52.286Z,70.10
2017-08-12T08:33:20.878Z,67.30
2017-08-12T08:35:49.054Z,67.80
2017-08-12T08:38:17.151Z,69.20
2017-08-12T08:40:45.222Z,68.40
2017-08-12T08:43:13.374Z,68.70
2017-08-12T08:45:41.550Z,69.30
2017-08-12T08:48:09.718Z,68.80
2017-08-12T08:50:37.810Z,69.20
2017-08-12T08:53:07.489Z,69.20
2017-08-12T08:55:35.983Z,69.10
2017-08-12T08:58:04.160Z,70.00
2017-08-12T09:00:32.265Z,72.00
2017-08-12T09:03:01.108Z,69.80
2017-08-12T09:05:29.606Z,69.90
2017-08-12T09:07:58.214Z,72.00
2017-08-12T09:10:26.278Z,73.30
2017-08-12T09:12:54.434Z,67.80
2017-08-12T09:15:22.614Z,68.50
2017-08-12T09:17:50.673Z,67.20
2017-08-12T09:20:18.854Z,67.70
2017-08-12T09:22:47.834Z,70.80
2017-08-12T09:25:16.743Z,68.80
2017-08-12T09:27:44.910Z,67.90
2017-08-12T09:30:13.793Z,68.10
2017-08-12T09:32:41.975Z,67.40
2017-08-12T09:35:10.447Z,66.70
2017-08-12T09:37:39.317Z,69.10
2017-08-12T09:40:07.390Z,67.50
2017-08-12T09:42:35.494Z,67.60
2017-08-12T09:45:03.594Z,66.80
2017-08-12T09:47:32.462Z,65.40
2017-08-12T09:50:00.633Z,65.40
2017-08-12T09:52:28.710Z,66.30
2017-08-12T09:54:57.376Z,66.70
2017-08-12T09:57:26.279Z,67.40
2017-08-12T09:59:54.374Z,66.90
2017-08-12T10:02:22.526Z,66.90
2017-08-12T10:04:50.699Z,68.40
2017-08-12T10:07:18.875Z,66.90
2017-08-12T10:09:47.757Z,69.00
2017-08-12T10:12:15.938Z,67.60
2017-08-12T10:14:44.422Z,67.30
2017-08-12T10:17:12.590Z,70.60
2017-08-12T10:19:40.689Z,70.30
2017-08-12T10:22:09.158Z,70.50
2017-08-12T10:24:37.331Z,72.60
2017-08-12T10:27:05.798Z,71.60
2017-08-12T10:29:33.979Z,72.20
2017-08-12T10:32:02.150Z,73.00
2017-08-12T10:34:30.217Z,72.20
2017-08-12T10:36:58.318Z,73.80
2017-08-12T10:39:26.394Z,76.40
2017-08-12T10:41:54.543Z,77.20
2017-08-12T10:44:22.713Z,74.60
2017-08-12T10:46:50.892Z,75.30
2017-08-12T10:49:19.066Z,75.20
2017-08-12T10:51:47.178Z,74.70
2017-08-12T10:54:15.730Z,76.70
2017-08-12T10:56:43.898Z,74.60
2017-08-12T10:59:12.070Z,74.70
2017-08-12T11:01:40.145Z,74.20
2017-08-12T11:04:08.246Z,74.30
2017-08-12T11:06:37.081Z,73.60
2017-08-12T11:09:05.574Z,71.70
2017-08-12T11:11:33.762Z,71.10
2017-08-12T11:14:01.934Z,69.50
2017-08-12T11:16:30.031Z,69.50
2017-08-12T11:18:58.498Z,69.10
2017-08-12T11:21:26.602Z,69.20
2017-08-12T11:23:56.441Z,68.70
2017-08-12T11:26:24.546Z,67.00
2017-08-12T11:28:52.722Z,68.60
2017-08-12T11:31:20.802Z,69.70
2017-08-12T11:33:50.406Z,70.50
2017-08-12T11:36:18.494Z,69.80
2017-08-12T11:38:46.646Z,67.00
2017-08-12T11:41:15.138Z,68.10
2017-08-12T11:43:43.302Z,67.50
2017-08-12T11:46:11.474Z,69.60
2017-08-12T11:48:39.650Z,70.00
2017-08-12T11:51:07.822Z,66.40
2017-08-12T11:53:36.007Z,66.60
2017-08-12T11:56:04.590Z,65.90
2017-08-12T11:58:32.678Z,64.80
2017-08-12T12:01:00.756Z,67.30
2017-08-12T12:03:29.313Z,67.60
2017-08-12T12:05:58.193Z,67.30
2017-08-12T12:08:26.377Z,66.60
2017-08-12T12:10:54.550Z,67.50
2017-08-12T12:13:22.726Z,65.50
2017-08-12T12:15:50.899Z,65.00
2017-08-12T12:18:19.001Z,65.60
2017-08-12T12:20:47.658Z,63.80
2017-08-12T12:23:15.843Z,63.90
2017-08-12T12:25:44.011Z,64.50
2017-08-12T12:28:12.186Z,62.90
2017-08-12T12:30:40.298Z,61.30
2017-08-12T12:33:09.241Z,63.40
2017-08-12T12:35:37.418Z,63.20
2017-08-12T12:38:05.594Z,63.40
2017-08-12T12:40:33.766Z,61.50
2017-08-12T12:43:01.952Z,62.00
2017-08-12T12:45:30.041Z,62.40
2017-08-12T12:47:58.124Z,59.40
2017-08-12T12:50:26.987Z,62.60
2017-08-12T12:52:55.079Z,60.90
2017-08-12T12:55:23.971Z,61.90
2017-08-12T12:57:52.933Z,63.10
2017-08-12T13:00:21.015Z,62.20
2017-08-12T13:02:49.183Z,60.80
2017-08-12T13:05:17.359Z,59.80
2017-08-12T13:07:45.510Z,59.80
2017-08-12T13:10:13.598Z,59.50
2017-08-12T13:12:41.678Z,60.00
2017-08-12T13:15:09.850Z,61.00
2017-08-12T13:17:37.961Z,62.00
2017-08-12T13:20:06.798Z,63.30
2017-08-12T13:22:34.890Z,62.70
2017-08-12T13:25:03.019Z,63.60
2017-08-12T13:27:31.126Z,64.30
2017-08-12T13:29:59.202Z,65.40
2017-08-12T13:32:27.374Z,65.70
2017-08-12T13:34:55.546Z,64.70
2017-08-12T13:37:23.723Z,65.30
2017-08-12T13:39:51.822Z,66.00
2017-08-12T13:42:20.690Z,67.10
2017-08-12T13:44:48.772Z,66.10
2017-08-12T13:47:16.845Z,66.80
2017-08-12T13:49:44.946Z,69.50
2017-08-12T13:52:13.792Z,70.00
2017-08-12T13:54:41.973Z,70.00
2017-08-12T13:57:10.861Z,68.80
2017-08-12T13:59:38.982Z,69.20
2017-08-12T14:02:07.516Z,68.60
2017-08-12T14:04:35.589Z,68.50
2017-08-12T14:07:03.698Z,68.90
2017-08-12T14:09:31.775Z,70.10
2017-08-12T14:12:00.618Z,70.50
2017-08-12T14:14:28.714Z,70.30
2017-08-12T14:16:56.842Z,70.40
2017-08-12T14:19:25.041Z,69.80
2017-08-12T14:21:53.118Z,70.70
2017-08-12T14:24:22.002Z,71.10
2017-08-12T14:26:50.078Z,70.40
2017-08-12T14:29:18.178Z,71.50
2017-08-12T14:31:46.645Z,72.90
2017-08-12T14:34:14.723Z,72.90
2017-08-12T14:36:42.874Z,73.90
2017-08-12T14:39:11.250Z,73.70
2017-08-12T14:41:39.325Z,72.90
2017-08-12T14:44:07.403Z,73.40
2017-08-12T14:46:35.494Z,74.20
2017-08-12T14:49:03.567Z,74.10
2017-08-12T14:51:32.438Z,72.90
2017-08-12T14:54:00.522Z,72.80
2017-08-12T14:56:28.593Z,73.00
2017-08-12T14:58:56.743Z,73.80
2017-08-12T15:01:24.922Z,73.00
2017-08-12T15:03:53.098Z,73.50
2017-08-12T15:06:21.687Z,73.30
2017-08-12T15:08:49.858Z,73.90
2017-08-12T15:11:18.030Z,75.70
2017-08-12T15:13:46.126Z,75.40
2017-08-12T15:16:15.605Z,76.10
2017-08-12T15:18:44.090Z,78.50
2017-08-12T15:21:12.158Z,80.30
2017-08-12T15:23:40.338Z,79.30
2017-08-12T15:26:08.429Z,78.50
2017-08-12T15:28:36.502Z,76.70
2017-08-12T15:31:04.612Z,75.80
2017-08-12T15:33:32.681Z,78.10
2017-08-12T15:36:00.790Z,79.50
2017-08-12T15:38:28.974Z,81.50
2017-08-12T15:40:57.051Z,80.70
2017-08-12T15:43:25.214Z,81.60
2017-08-12T15:45:53.306Z,81.60
2017-08-12T15:48:21.466Z,81.00
2017-08-12T15:50:49.639Z,81.20
2017-08-12T15:53:17.809Z,81.20
2017-08-12T15:55:45.907Z,81.70
2017-08-12T15:58:15.511Z,82.80
2017-08-12T16:00:43.582Z,78.50
2017-08-12T16:03:12.145Z,80.40
2017-08-12T16:05:40.322Z,77.70
2017-08-12T16:08:08.403Z,80.30
2017-08-12T16:10:36.595Z,79.00
2017-08-12T16:13:05.461Z,79.00
2017-08-12T16:15:33.634Z,75.00
2017-08-12T16:18:01.902Z,74.90
2017-08-12T16:20:30.083Z,75.90
2017-08-12T16:22:58.923Z,74.20
2017-08-12T16:25:27.439Z,76.30
2017-08-12T16:27:55.506Z,75.00
2017-08-12T16:30:23.583Z,75.60
2017-08-12T16:32:51.702Z,74.60
2017-08-12T16:35:19.778Z,74.20
2017-08-12T16:37:48.627Z,75.60
2017-08-12T16:40:16.731Z,75.70
2017-08-12T16:42:44.870Z,76.10
2017-08-12T16:45:13.369Z,76.00
2017-08-12T16:47:41.533Z,78.30
2017-08-12T16:50:09.610Z,77.20
2017-08-12T16:52:37.803Z,78.10
2017-08-12T16:55:06.673Z,78.60
2017-08-12T16:57:34.750Z,78.90
2017-08-12T17:00:03.318Z,80.70
2017-08-12T17:02:31.814Z,80.60
2017-08-12T17:04:59.916Z,80.10
2017-08-12T17:07:28.408Z,80.20
2017-08-12T17:09:57.254Z,80.60
2017-08-12T17:12:25.838Z,82.00
2017-08-12T17:14:54.014Z,82.60
2017-08-12T17:17:22.231Z,84.50
2017-08-12T17:19:50.363Z,85.30
2017-08-12T17:22:18.534Z,85.90
2017-08-12T17:24:46.710Z,86.60
2017-08-12T17:27:14.786Z,87.00
2017-08-12T17:29:42.881Z,87.50
2017-08-12T17:32:10.954Z,87.70
2017-08-12T17:34:39.105Z,88.60
2017-08-12T17:37:07.588Z,88.10
2017-08-12T17:39:35.666Z,88.50
2017-08-12T17:42:03.839Z,89.20
2017-08-12T17:44:32.006Z,89.00
2017-08-12T17:47:00.590Z,88.40
2017-08-12T17:49:29.087Z,86.90
2017-08-12T17:51:57.181Z,85.30
2017-08-12T17:54:26.138Z,85.20
2017-08-12T17:56:54.307Z,84.10
2017-08-12T17:59:22.430Z,84.40
2017-08-12T18:01:50.554Z,84.50
2017-08-12T18:04:19.038Z,85.20
2017-08-12T18:06:47.214Z,85.70
2017-08-12T18:09:15.690Z,85.30
2017-08-12T18:11:43.865Z,84.60
2017-08-12T18:14:11.943Z,84.20
2017-08-12T18:16:40.019Z,84.10
2017-08-12T18:19:08.181Z,84.10
2017-08-12T18:21:36.359Z,85.30
2017-08-12T18:24:04.826Z,85.10
2017-08-12T18:26:33.410Z,84.30
2017-08-12T18:29:02.238Z,85.50
2017-08-12T18:31:31.086Z,85.50
2017-08-12T18:33:59.563Z,84.40
2017-08-12T18:36:27.664Z,85.00
2017-08-12T18:38:55.749Z,84.90
2017-08-12T18:41:23.830Z,85.50
2017-08-12T18:43:51.903Z,85.00
2017-08-12T18:46:20.775Z,87.10
2017-08-12T18:48:48.850Z,86.30
2017-08-12T18:51:17.322Z,86.80
2017-08-12T18:53:45.428Z,87.10
2017-08-12T18:56:14.262Z,87.40
2017-08-12T18:58:42.333Z,87.80
2017-08-12T19:01:10.427Z,87.20
2017-08-12T19:03:38.503Z,88.00
2017-08-12T19:06:06.603Z,88.10
2017-08-12T19:08:35.434Z,88.60
2017-08-12T19:11:03.538Z,88.50
2017-08-12T19:13:31.610Z,88.80
2017-08-12T19:15:59.690Z,89.30
2017-08-12T19:18:27.830Z,89.50
2017-08-12T19:20:55.910Z,90.00
2017-08-12T19:23:24.370Z,87.90
2017-08-12T19:25:52.470Z,86.10
2017-08-12T19:28:20.570Z,83.90
2017-08-12T19:30:49.425Z,83.60
2017-08-12T19:33:17.499Z,80.90
2017-08-12T19:35:45.614Z,80.40
2017-08-12T19:38:14.450Z,80.60
2017-08-12T19:40:42.526Z,78.80
2017-08-12T19:43:10.618Z,78.60
2017-08-12T19:45:38.690Z,79.20
2017-08-12T19:48:06.782Z,78.30
2017-08-12T19:50:35.282Z,77.80
2017-08-12T19:53:04.123Z,78.40
2017-08-12T19:55:32.221Z,77.70
2017-08-12T19:58:00.289Z,78.80
2017-08-12T20:00:28.394Z,77.70
2017-08-12T20:02:56.498Z,77.50
2017-08-12T20:05:24.698Z,78.80
2017-08-12T20:07:52.870Z,76.30
2017-08-12T20:10:21.041Z,77.10
2017-08-12T20:12:49.214Z,77.70
2017-08-12T20:15:17.703Z,76.10
2017-08-12T20:17:45.879Z,76.50
2017-08-12T20:20:13.953Z,75.60
2017-08-12T20:22:42.117Z,75.80
2017-08-12T20:25:11.002Z,75.80
2017-08-12T20:27:39.079Z,76.30
2017-08-12T20:30:07.174Z,77.60
2017-08-12T20:32:35.254Z,77.80
2017-08-12T20:35:04.206Z,78.50
2017-08-12T20:37:32.238Z,77.90
2017-08-12T20:40:00.314Z,78.50
2017-08-12T20:42:28.450Z,78.50
2017-08-12T20:44:56.618Z,78.80
2017-08-12T20:47:24.790Z,79.00
2017-08-12T20:49:54.186Z,78.70
2017-08-12T20:52:22.257Z,78.30
2017-08-12T20:54:50.437Z,78.30
2017-08-12T20:57:18.610Z,78.70
2017-08-12T20:59:46.782Z,79.70
2017-08-12T21:02:14.878Z,79.60
2017-08-12T21:04:42.954Z,80.20
2017-08-12T21:07:11.926Z,80.90
2017-08-12T21:09:40.022Z,79.30
2017-08-12T21:12:08.900Z,80.30
2017-08-12T21:14:37.027Z,79.50
2017-08-12T21:17:05.099Z,80.10
2017-08-12T21:19:33.610Z,81.00
2017-08-12T21:22:01.719Z,80.30
2017-08-12T21:24:30.571Z,81.10
2017-08-12T21:26:58.647Z,81.10
2017-08-12T21:29:27.026Z,80.10
2017-08-12T21:31:55.133Z,80.10
2017-08-12T21:34:23.978Z,80.60
2017-08-12T21:36:52.058Z,79.90
2017-08-12T21:39:20.934Z,79.80
2017-08-12T21:41:49.022Z,80.30
2017-08-12T21:44:17.498Z,79.80
2017-08-12T21:46:45.595Z,80.70
2017-08-12T21:49:14.444Z,80.30
2017-08-12T21:51:42.546Z,80.50
2017-08-12T21:54:11.031Z,81.10
2017-08-12T21:56:39.105Z,80.70
2017-08-12T21:59:07.222Z,80.30
2017-08-12T22:01:36.079Z,81.20
2017-08-12T22:04:04.164Z,80.80
2017-08-12T22:06:32.239Z,81.80
2017-08-12T22:09:01.191Z,83.00
2017-08-12T22:11:29.362Z,83.70
2017-08-12T22:13:57.540Z,84.30
2017-08-12T22:16:25.659Z,86.10
2017-08-12T22:18:53.783Z,86.10
2017-08-12T22:21:21.958Z,84.50
2017-08-12T22:23:50.544Z,84.20
2017-08-12T22:26:19.026Z,83.80
2017-08-12T22:28:47.199Z,83.70
2017-08-12T22:31:15.783Z,83.60
2017-08-12T22:33:43.954Z,83.50
2017-08-12T22:36:12.031Z,83.90
2017-08-12T22:38:40.729Z,82.70
2017-08-12T22:41:09.502Z,82.70
2017-08-12T22:43:37.682Z,83.00
2017-08-12T22:46:05.845Z,82.30
2017-08-12T22:48:34.026Z,83.00
2017-08-12T22:51:02.503Z,83.20
2017-08-12T22:53:31.398Z,82.90
2017-08-12T22:55:59.578Z,83.30
2017-08-12T22:58:28.158Z,83.20
2017-08-12T23:00:56.331Z,83.70
2017-08-12T23:03:24.799Z,83.40
2017-08-12T23:05:52.990Z,83.50
2017-08-12T23:08:21.570Z,83.30
2017-08-12T23:10:49.746Z,83.80
2017-08-12T23:13:17.921Z,83.60
2017-08-12T23:15:46.062Z,83.20
2017-08-12T23:18:14.267Z,82.70
2017-08-12T23:20:42.365Z,82.80
2017-08-12T23:23:10.513Z,83.40
2017-08-12T23:25:38.686Z,83.50
2017-08-12T23:28:06.763Z,83.30
2017-08-12T23:30:34.934Z,83.70
2017-08-12T23:33:03.110Z,83.20
2017-08-12T23:35:31.209Z,83.50
2017-08-12T23:38:00.088Z,82.10
2017-08-12T23:40:28.238Z,81.60
2017-08-12T23:42:56.418Z,82.30
2017-08-12T23:45:24.594Z,82.90
2017-08-12T23:47:52.774Z,83.30
2017-08-12T23:50:20.942Z,81.90
2017-08-12T23:52:49.119Z,81.10
2017-08-12T23:55:17.290Z,80.90
2017-08-12T23:57:45.758Z,81.10
